Time;durP1;ratioP1;P1;durP2;ratioP2;P2;SDS_P1;SDS_P2;PMS_P1;PMS_P2;Temp;Humidity;BMP_temperature;BMP_pressure;BME280_temperature;BME280_humidity;BME280_pressure;Samples;Min_cycle;Max_cycle;Signal;HPM_P1;HPM_P2
2023/07/04 00:01:45;;;;;;;12.13;2.67;;;11.60;99.90;;;;;;4972368;28;20489;-92
2023/07/04 00:04:12;;;;;;;10.38;2.53;;;11.70;99.90;;;;;;4971742;28;20411;-92
2023/07/04 00:06:39;;;;;;;10.00;2.70;;;11.20;99.90;;;;;;4955062;28;20421;-93
2023/07/04 00:09:07;;;;;;;10.57;2.40;;;11.60;99.90;;;;;;4956275;28;20423;-92
2023/07/04 00:11:33;;;;;;;10.75;2.50;;;11.40;99.90;;;;;;4955105;28;20556;-92
2023/07/04 00:13:58;;;;;;;9.65;2.25;;;11.50;99.90;;;;;;4956865;28;20926;-93
2023/07/04 00:16:24;;;;;;;13.73;2.85;;;11.40;99.90;;;;;;4971076;28;20413;-92
2023/07/04 00:18:50;;;;;;;10.35;2.90;;;11.00;99.90;;;;;;4972217;28;20524;-93
2023/07/04 00:21:16;;;;;;;10.50;2.70;;;11.10;99.90;;;;;;4971777;28;20953;-92
2023/07/04 00:23:48;;;;;;;7.65;2.90;;;11.40;99.90;;;;;;4955309;28;20581;-91
2023/07/04 00:26:18;;;;;;;11.40;3.30;;;11.20;99.90;;;;;;4955972;28;20438;-91
2023/07/04 00:28:44;;;;;;;13.02;3.80;;;10.80;99.90;;;;;;4954838;28;20850;-92
2023/07/04 00:31:14;;;;;;;13.25;3.90;;;11.10;99.90;;;;;;4956209;28;20406;-92
2023/07/04 00:33:39;;;;;;;14.77;4.90;;;11.00;99.90;;;;;;4970619;28;20442;-92
2023/07/04 00:36:09;;;;;;;12.18;4.30;;;11.20;99.90;;;;;;4955919;28;20878;-92
2023/07/04 00:38:38;;;;;;;15.32;4.60;;;11.10;99.90;;;;;;4954969;28;20630;-91
2023/07/04 00:41:10;;;;;;;10.75;4.32;;;11.20;99.90;;;;;;4955035;28;20458;-92
2023/07/04 00:44:08;;;;;;;11.47;4.77;;;11.20;99.90;;;;;;4971751;28;20867;-91
2023/07/04 00:47:04;;;;;;;11.77;4.63;;;11.20;99.90;;;;;;4970610;28;20414;-94
2023/07/04 00:49:43;;;;;;;12.10;4.85;;;11.20;99.90;;;;;;4955392;28;20973;-92
2023/07/04 00:52:23;;;;;;;11.73;4.80;;;11.10;99.90;;;;;;4955482;28;20414;-91
2023/07/04 00:54:56;;;;;;;9.73;4.70;;;11.10;99.90;;;;;;4970892;28;20411;-91
2023/07/04 00:57:25;;;;;;;11.17;4.50;;;11.30;99.90;;;;;;4956020;28;20422;-92
2023/07/04 00:59:57;;;;;;;14.43;4.97;;;11.10;99.90;;;;;;4954592;28;20453;-92
2023/07/04 01:02:28;;;;;;;13.32;5.63;;;11.40;99.90;;;;;;4955064;28;20450;-91
2023/07/04 01:04:56;;;;;;;10.10;5.20;;;11.70;99.90;;;;;;4954908;28;20419;-93
2023/07/04 01:07:32;;;;;;;11.30;4.82;;;11.50;99.90;;;;;;4954219;28;20423;-92
2023/07/04 01:10:05;;;;;;;12.05;5.50;;;11.40;99.90;;;;;;4955607;28;20461;-92
2023/07/04 01:12:31;;;;;;;12.30;5.50;;;11.30;99.90;;;;;;4953696;28;20419;-92
2023/07/04 01:15:01;;;;;;;11.30;5.82;;;11.30;99.90;;;;;;4971095;28;20485;-92
2023/07/04 01:17:27;;;;;;;11.87;5.87;;;11.60;99.90;;;;;;4970489;28;20502;-93
2023/07/04 01:19:53;;;;;;;15.17;6.20;;;11.70;99.90;;;;;;4953793;28;20486;-94
2023/07/04 01:22:29;;;;;;;13.85;5.43;;;11.90;99.90;;;;;;4954952;28;20907;-93
2023/07/04 01:24:55;;;;;;;11.50;5.60;;;11.50;99.90;;;;;;4954036;28;20456;-93
2023/07/04 01:27:22;;;;;;;9.90;4.70;;;11.50;99.90;;;;;;4955486;28;20427;-93
2023/07/04 01:29:48;;;;;;;12.50;6.75;;;11.80;99.90;;;;;;4953724;28;20437;-93
2023/07/04 01:32:14;;;;;;;11.18;5.63;;;11.30;99.90;;;;;;4970775;28;20429;-91
2023/07/04 01:34:41;;;;;;;10.68;5.00;;;11.50;99.90;;;;;;4970378;28;20407;-92
2023/07/04 01:37:07;;;;;;;11.43;5.43;;;11.60;99.90;;;;;;4970533;28;20406;-92
2023/07/04 01:39:32;;;;;;;12.05;6.47;;;11.50;99.90;;;;;;4954388;28;20430;-92
2023/07/04 01:41:58;;;;;;;8.40;4.63;;;11.60;99.90;;;;;;4970231;28;20472;-92
2023/07/04 01:44:24;;;;;;;15.52;6.43;;;11.40;99.90;;;;;;4954984;28;20426;-92
2023/07/04 01:46:51;;;;;;;13.18;5.90;;;11.40;99.90;;;;;;4969234;28;20410;-92
2023/07/04 01:49:17;;;;;;;10.50;5.38;;;11.60;99.90;;;;;;4955242;28;20903;-92
2023/07/04 01:51:43;;;;;;;9.82;4.70;;;11.50;99.90;;;;;;4953522;28;20418;-91
2023/07/04 01:54:16;;;;;;;12.35;5.90;;;11.40;99.90;;;;;;4970146;28;20414;-92
2023/07/04 01:56:42;;;;;;;11.00;6.15;;;11.30;99.90;;;;;;4954537;28;20464;-92
2023/07/04 01:59:08;;;;;;;14.32;6.28;;;11.10;99.90;;;;;;4969838;28;20430;-92
2023/07/04 02:01:34;;;;;;;14.98;7.40;;;11.30;99.90;;;;;;4970533;28;20410;-92
2023/07/04 02:03:59;;;;;;;11.17;6.33;;;11.20;99.90;;;;;;4969295;28;20477;-92
2023/07/04 02:06:25;;;;;;;10.35;6.18;;;11.10;99.90;;;;;;4970895;28;20481;-91
2023/07/04 02:08:53;;;;;;;9.60;6.15;;;11.20;99.90;;;;;;4954031;28;20410;-92
2023/07/04 02:11:19;;;;;;;11.63;6.83;;;11.10;99.90;;;;;;4970632;28;20477;-92
2023/07/04 02:13:44;;;;;;;14.07;7.77;;;10.80;99.90;;;;;;4970174;28;20422;-92
2023/07/04 02:16:10;;;;;;;11.23;6.80;;;11.70;99.90;;;;;;4969675;28;21037;-92
2023/07/04 02:18:36;;;;;;;11.97;7.80;;;11.20;99.90;;;;;;4954150;28;20473;-92
2023/07/04 02:21:01;;;;;;;10.60;6.50;;;11.30;99.90;;;;;;4969327;28;20419;-91
2023/07/04 02:23:27;;;;;;;9.90;5.90;;;11.10;99.90;;;;;;4970917;28;20413;-91
2023/07/04 02:25:54;;;;;;;12.07;7.43;;;11.40;99.90;;;;;;4969255;28;20435;-91
2023/07/04 02:28:20;;;;;;;10.35;7.18;;;10.80;99.90;;;;;;4954510;28;20525;-91
2023/07/04 02:30:55;;;;;;;11.35;7.50;;;10.60;99.90;;;;;;4969953;28;20497;-92
2023/07/04 02:33:21;;;;;;;14.33;8.33;;;11.40;99.90;;;;;;4953303;28;20426;-91
2023/07/04 02:35:48;;;;;;;11.33;7.83;;;11.40;99.90;;;;;;4954405;28;20453;-92
2023/07/04 02:38:14;;;;;;;11.52;7.07;;;11.30;99.90;;;;;;4953085;28;20489;-92
2023/07/04 02:40:45;;;;;;;13.75;7.45;;;11.30;99.90;;;;;;4954744;28;20505;-93
2023/07/04 02:43:11;;;;;;;12.10;6.40;;;11.30;99.90;;;;;;4969166;28;20465;-90
2023/07/04 02:45:36;;;;;;;15.75;8.63;;;11.50;99.90;;;;;;4954792;28;20542;-91
2023/07/04 02:48:02;;;;;;;11.70;6.90;;;11.50;99.90;;;;;;4954008;28;20438;-90
2023/07/04 02:50:28;;;;;;;11.75;5.25;;;11.60;99.90;;;;;;4969587;28;20414;-91
2023/07/04 02:52:53;;;;;;;10.70;4.70;;;11.50;99.90;;;;;;4970261;28;20908;-92
2023/07/04 02:55:20;;;;;;;6.63;3.80;;;11.40;99.90;;;;;;4953571;28;20425;-92
2023/07/04 02:57:46;;;;;;;8.20;3.58;;;11.50;99.90;;;;;;4970452;28;20784;-92
2023/07/04 03:00:12;;;;;;;8.48;3.72;;;11.50;99.90;;;;;;4952802;28;20480;-91
2023/07/04 03:02:38;;;;;;;8.65;4.03;;;11.40;99.90;;;;;;4955498;28;21086;-93
2023/07/04 03:05:04;;;;;;;7.43;3.30;;;11.70;99.90;;;;;;4956773;28;20450;-92
2023/07/04 03:07:29;;;;;;;7.03;3.40;;;11.40;99.90;;;;;;4957359;28;20422;-92
2023/07/04 03:09:55;;;;;;;6.50;2.53;;;11.60;99.90;;;;;;4973459;28;20426;-90
2023/07/04 03:12:21;;;;;;;5.45;2.03;;;11.50;99.90;;;;;;4972655;28;20421;-93
2023/07/04 03:14:47;;;;;;;7.00;1.98;;;11.40;99.90;;;;;;4973003;28;20429;-92
2023/07/04 03:17:12;;;;;;;7.85;1.63;;;12.00;99.90;;;;;;4969335;28;20419;-93
2023/07/04 03:19:38;;;;;;;8.10;2.10;;;11.70;99.90;;;;;;4956271;28;20438;-94
2023/07/04 03:22:04;;;;;;;8.80;1.85;;;12.20;99.90;;;;;;4955211;28;20407;-93
2023/07/04 03:24:33;;;;;;;8.30;2.45;;;11.80;99.90;;;;;;4972890;28;20429;-93
2023/07/04 03:26:58;;;;;;;6.87;2.37;;;11.90;99.90;;;;;;4972354;28;20414;-94
2023/07/04 03:29:24;;;;;;;7.10;1.98;;;11.70;99.90;;;;;;4971630;28;20406;-91
2023/07/04 03:31:50;;;;;;;5.20;1.40;;;11.80;99.90;;;;;;4972357;28;20422;-92
2023/07/04 03:34:15;;;;;;;5.73;1.90;;;11.80;99.90;;;;;;4971356;28;20957;-93
2023/07/04 03:36:41;;;;;;;4.63;1.65;;;11.80;99.90;;;;;;4973298;28;20414;-93
2023/07/04 03:39:07;;;;;;;5.17;1.27;;;11.80;99.90;;;;;;4971210;28;20465;-93
2023/07/04 03:41:33;;;;;;;4.67;1.50;;;11.50;99.90;;;;;;4973072;28;20399;-92
2023/07/04 03:44:00;;;;;;;3.40;1.48;;;11.70;99.90;;;;;;4971268;28;20501;-92
2023/07/04 03:46:28;;;;;;;4.03;1.35;;;11.50;99.90;;;;;;4972005;28;22609;-91
2023/07/04 03:48:53;;;;;;;6.50;2.03;;;11.60;99.90;;;;;;4971940;28;20494;-91
2023/07/04 03:51:19;;;;;;;5.43;1.92;;;11.60;99.90;;;;;;4971021;28;20486;-92
2023/07/04 03:53:45;;;;;;;4.67;2.00;;;11.60;99.90;;;;;;4956347;28;20525;-91
2023/07/04 03:56:11;;;;;;;6.20;2.40;;;11.40;99.90;;;;;;4970587;28;20419;-92
2023/07/04 03:58:37;;;;;;;5.78;1.73;;;11.50;99.90;;;;;;4973022;28;20528;-93
2023/07/04 04:01:06;;;;;;;5.32;2.25;;;11.40;99.90;;;;;;4970768;28;20410;-92
2023/07/04 04:03:37;;;;;;;5.22;1.77;;;11.30;99.90;;;;;;4972262;28;20493;-91
2023/07/04 04:06:07;;;;;;;6.03;2.30;;;11.30;99.90;;;;;;4971422;28;20402;-92
2023/07/04 04:08:33;;;;;;;6.10;2.37;;;11.30;99.90;;;;;;4971217;28;20415;-93
2023/07/04 04:10:59;;;;;;;5.57;2.73;;;11.50;99.90;;;;;;4971761;28;20465;-93
2023/07/04 04:13:25;;;;;;;7.10;2.40;;;11.60;99.90;;;;;;4970016;28;20415;-93
2023/07/04 04:15:51;;;;;;;4.95;2.80;;;11.50;99.90;;;;;;4972121;28;20452;-91
2023/07/04 04:18:18;;;;;;;4.72;2.80;;;11.50;99.90;;;;;;4965326;28;20444;-93
2023/07/04 04:20:43;;;;;;;5.47;2.63;;;11.60;99.90;;;;;;4971278;28;20407;-92
2023/07/04 04:23:09;;;;;;;5.83;2.27;;;11.60;99.90;;;;;;4959785;28;20939;-92
2023/07/04 04:25:37;;;;;;;5.10;1.90;;;12.00;99.90;;;;;;4954805;28;20415;-93
2023/07/04 04:28:04;;;;;;;5.40;1.88;;;12.50;99.90;;;;;;4971563;28;20947;-92
2023/07/04 04:30:29;;;;;;;4.82;1.85;;;12.10;99.90;;;;;;4970710;28;20399;-93
2023/07/04 04:32:55;;;;;;;4.40;1.50;;;11.90;99.90;;;;;;4971828;28;20406;-93
2023/07/04 04:35:21;;;;;;;5.47;2.10;;;12.10;99.90;;;;;;4970611;28;20441;-93
2023/07/04 04:37:47;;;;;;;4.83;1.40;;;12.20;99.90;;;;;;4971467;28;20497;-93
2023/07/04 04:40:16;;;;;;;2.83;1.20;;;12.70;99.90;;;;;;4970696;28;20892;-95
2023/07/04 04:42:43;;;;;;;4.75;1.38;;;12.10;99.90;;;;;;4970460;28;20406;-92
2023/07/04 04:45:11;;;;;;;4.20;0.80;;;12.20;99.90;;;;;;4971553;28;20514;-94
2023/07/04 04:47:39;;;;;;;3.87;1.07;;;12.20;99.90;;;;;;4969577;28;20421;-93
2023/07/04 04:50:21;;;;;;;4.00;1.30;;;12.30;99.90;;;;;;4973721;28;20426;-94
2023/07/04 04:52:48;;;;;;;4.95;1.00;;;12.10;99.90;;;;;;4953013;28;21027;-92
2023/07/04 04:55:15;;;;;;;4.82;1.60;;;12.60;99.90;;;;;;4971043;28;20403;-95
2023/07/04 04:57:45;;;;;;;5.32;1.42;;;12.40;99.90;;;;;;4969976;28;20413;-95
2023/07/04 05:00:21;;;;;;;4.40;1.17;;;12.80;99.90;;;;;;4970383;28;20757;-94
2023/07/04 05:02:54;;;;;;;4.50;2.20;;;12.60;99.90;;;;;;4954558;28;20508;-95
2023/07/04 05:05:27;;;;;;;6.40;1.90;;;12.90;99.90;;;;;;4954927;28;20399;-94
2023/07/04 05:08:13;;;;;;;5.70;2.38;;;13.20;99.90;;;;;;4973794;28;20438;-93
2023/07/04 05:11:08;;;;;;;4.18;1.52;;;12.70;99.90;;;;;;4970302;28;20422;-95
2023/07/04 05:14:21;;;;;;;5.38;2.22;;;12.90;99.90;;;;;;4956102;28;21027;-94
2023/07/04 05:16:50;;;;;;;5.47;1.13;;;13.00;99.90;;;;;;4926075;28;20418;-92
2023/07/04 05:19:39;;;;;;;8.00;2.50;;;13.50;99.90;;;;;;4953213;28;20460;-95
2023/07/04 05:22:05;;;;;;;6.03;1.05;;;13.30;99.90;;;;;;4954390;28;20408;-94
2023/07/04 05:24:31;;;;;;;6.32;1.52;;;13.20;99.90;;;;;;4969956;28;20403;-93
2023/07/04 05:26:57;;;;;;;4.70;1.60;;;13.20;99.90;;;;;;4968707;28;20430;-93
2023/07/04 05:29:23;;;;;;;5.90;1.52;;;13.50;99.90;;;;;;4988351;28;20413;-93
2023/07/04 05:31:48;;;;;;;5.47;1.60;;;13.90;99.90;;;;;;4973905;28;20478;-94
2023/07/04 05:38:26;;;;;;;5.60;1.05;;;14.00;99.90;;;;;;4933001;29;20832;-93
2023/07/04 05:40:52;;;;;;;6.63;0.95;;;14.20;99.90;;;;;;4947329;28;20420;-93
2023/07/04 05:43:18;;;;;;;5.83;1.10;;;14.20;99.90;;;;;;4988508;28;20419;-91
2023/07/04 05:45:50;;;;;;;5.82;1.35;;;14.40;99.90;;;;;;4989492;28;20588;-94
2023/07/04 05:48:16;;;;;;;8.03;0.90;;;14.30;99.90;;;;;;4985967;28;20406;-92
2023/07/04 05:50:56;;;;;;;6.20;0.93;;;14.40;99.90;;;;;;4958709;28;20406;-93
2023/07/04 05:53:28;;;;;;;7.47;1.00;;;14.30;99.90;;;;;;4970114;28;20427;-93
2023/07/04 05:56:15;;;;;;;6.57;1.10;;;14.70;99.90;;;;;;4968839;28;20474;-93
2023/07/04 05:58:43;;;;;;;6.97;1.15;;;14.80;99.90;;;;;;4969086;28;20461;-92
2023/07/04 06:01:23;;;;;;;7.20;0.80;;;14.80;99.90;;;;;;4969149;28;20802;-94
2023/07/04 06:03:50;;;;;;;6.85;0.80;;;14.90;99.90;;;;;;4969390;28;20415;-95
2023/07/04 06:06:22;;;;;;;5.03;0.87;;;15.00;99.90;;;;;;4969422;28;20500;-93
2023/07/04 06:08:49;;;;;;;6.30;0.90;;;15.10;99.90;;;;;;4968814;28;20450;-92
2023/07/04 06:11:16;;;;;;;6.65;0.90;;;15.10;99.90;;;;;;4969654;28;20489;-94
2023/07/04 06:13:41;;;;;;;5.22;0.70;;;15.20;99.90;;;;;;4951489;28;20421;-94
2023/07/04 06:16:07;;;;;;;3.83;0.50;;;15.40;99.90;;;;;;4969368;28;20415;-92
2023/07/04 06:18:33;;;;;;;5.28;0.70;;;15.20;99.90;;;;;;4951748;28;20441;-93
2023/07/04 06:21:07;;;;;;;4.25;0.70;;;15.10;99.90;;;;;;4969108;28;20469;-93
2023/07/04 06:23:33;;;;;;;4.97;0.50;;;15.50;99.90;;;;;;4968424;28;20414;-93
2023/07/04 06:25:58;;;;;;;4.65;0.50;;;15.80;99.90;;;;;;4967773;28;20418;-93
2023/07/04 06:28:24;;;;;;;4.97;1.00;;;15.70;99.90;;;;;;4968598;28;20413;-94
2023/07/04 06:30:50;;;;;;;4.85;0.40;;;15.90;99.90;;;;;;4967701;28;21048;-92
2023/07/04 06:33:16;;;;;;;6.13;0.57;;;16.10;99.90;;;;;;4969217;28;20419;-91
2023/07/04 06:35:42;;;;;;;5.15;0.40;;;15.90;99.90;;;;;;4967742;28;20418;-93
2023/07/04 06:38:23;;;;;;;4.78;0.50;;;15.80;99.90;;;;;;4970832;28;20418;-92
2023/07/04 06:41:03;;;;;;;3.97;0.50;;;16.20;99.90;;;;;;4971940;28;20418;-94
2023/07/04 06:43:31;;;;;;;6.82;0.60;;;16.10;99.90;;;;;;4971676;28;20425;-94
2023/07/04 06:45:57;;;;;;;4.22;0.50;;;16.40;99.90;;;;;;4971937;28;20452;-91
2023/07/04 06:48:24;;;;;;;3.08;0.40;;;16.20;99.90;;;;;;4970909;28;20454;-92
2023/07/04 06:51:00;;;;;;;3.40;0.50;;;16.00;99.90;;;;;;4955887;28;20413;-92
2023/07/04 06:53:27;;;;;;;4.45;0.43;;;15.80;99.90;;;;;;4954989;28;20497;-92
2023/07/04 06:55:53;;;;;;;5.18;0.60;;;16.20;99.90;;;;;;4971779;28;20411;-91
2023/07/04 06:58:19;;;;;;;4.30;0.50;;;16.30;99.90;;;;;;4971679;28;20442;-94
2023/07/04 07:00:45;;;;;;;2.97;0.30;;;16.80;99.90;;;;;;4954813;28;20411;-93
2023/07/04 07:03:11;;;;;;;3.67;0.60;;;16.70;99.90;;;;;;4971603;28;20422;-91
2023/07/04 07:05:40;;;;;;;4.57;0.47;;;16.80;99.90;;;;;;4970716;28;20407;-94
2023/07/04 07:08:06;;;;;;;3.03;0.30;;;17.10;99.90;;;;;;4971932;28;20411;-91
2023/07/04 07:10:36;;;;;;;2.50;0.40;;;17.30;99.90;;;;;;4970946;28;20791;-92
2023/07/04 07:13:04;;;;;;;4.07;0.50;;;17.20;99.90;;;;;;4971809;28;20421;-91
2023/07/04 07:15:30;;;;;;;3.23;0.30;;;17.10;99.90;;;;;;4908226;28;1843426;-94
2023/07/04 07:17:56;;;;;;;4.30;0.30;;;17.30;99.90;;;;;;4971830;28;20438;-91
2023/07/04 07:20:21;;;;;;;4.45;0.30;;;16.90;99.90;;;;;;4956864;28;20410;-92
2023/07/04 07:22:47;;;;;;;4.27;0.50;;;17.10;99.90;;;;;;4955616;28;20445;-92
2023/07/04 07:25:13;;;;;;;4.03;0.50;;;17.80;99.90;;;;;;4972770;28;20410;-92
2023/07/04 07:27:38;;;;;;;5.50;0.50;;;17.10;99.90;;;;;;4971639;28;20419;-92
2023/07/04 07:30:05;;;;;;;3.75;0.50;;;16.80;99.90;;;;;;4972835;28;20407;-92
2023/07/04 07:32:31;;;;;;;6.15;0.57;;;17.10;99.90;;;;;;4972002;28;20907;-91
2023/07/04 07:34:57;;;;;;;4.68;0.50;;;17.40;99.90;;;;;;4971992;28;20414;-91
2023/07/04 07:37:23;;;;;;;5.57;0.60;;;17.10;99.90;;;;;;4972470;28;20417;-93
2023/07/04 07:39:51;;;;;;;4.50;0.40;;;17.30;99.90;;;;;;4971362;28;20444;-92
2023/07/04 07:42:17;;;;;;;4.57;0.50;;;17.10;99.90;;;;;;4972510;28;20454;-92
2023/07/04 07:44:42;;;;;;;3.78;0.40;;;17.50;99.90;;;;;;4971482;28;20437;-93
2023/07/04 07:47:10;;;;;;;4.30;0.55;;;17.20;99.90;;;;;;4972441;28;21420;-91
2023/07/04 07:49:37;;;;;;;4.22;0.40;;;17.40;99.90;;;;;;4970208;28;20414;-93
2023/07/04 07:52:03;;;;;;;3.42;0.40;;;17.40;99.90;;;;;;4955968;28;20419;-92
2023/07/04 07:54:29;;;;;;;5.05;0.60;;;17.50;99.90;;;;;;4971969;28;20577;-93
2023/07/04 07:56:54;;;;;;;4.10;0.50;;;17.50;99.90;;;;;;4971455;28;20498;-91
2023/07/04 07:59:21;;;;;;;4.68;0.50;;;17.80;99.90;;;;;;4972040;28;20442;-92
2023/07/04 08:01:47;;;;;;;5.80;0.40;;;17.60;99.90;;;;;;4970876;28;20395;-91
2023/07/04 08:04:14;;;;;;;4.13;0.50;;;17.70;99.90;;;;;;4972139;28;20403;-91
2023/07/04 08:06:42;;;;;;;4.00;0.40;;;17.60;99.90;;;;;;4971156;28;20430;-92
2023/07/04 08:09:11;;;;;;;3.85;0.40;;;18.30;99.90;;;;;;4972525;28;21186;-92
2023/07/04 08:11:38;;;;;;;3.85;0.40;;;18.10;99.90;;;;;;4971677;28;20418;-90
2023/07/04 08:14:04;;;;;;;4.80;0.40;;;17.90;99.90;;;;;;4971048;28;20422;-91
2023/07/04 08:16:40;;;;;;;5.93;0.52;;;17.90;99.90;;;;;;4972028;28;20399;-91
2023/07/04 08:19:06;;;;;;;5.20;0.60;;;17.90;99.90;;;;;;4954700;28;20489;-91
2023/07/04 08:21:32;;;;;;;5.23;0.50;;;17.90;99.90;;;;;;4972050;28;20842;-90
2023/07/04 08:23:58;;;;;;;4.63;0.60;;;17.60;99.90;;;;;;4971383;28;20414;-90
2023/07/04 08:26:25;;;;;;;5.90;0.70;;;17.80;99.90;;;;;;4955785;28;20394;-90
2023/07/04 08:28:56;;;;;;;4.97;0.63;;;17.60;99.90;;;;;;4971075;28;20402;-91
2023/07/04 08:31:23;;;;;;;7.07;0.80;;;18.30;99.90;;;;;;4954933;28;20415;-93
2023/07/04 08:33:48;;;;;;;5.32;0.95;;;18.30;99.90;;;;;;4970971;28;20414;-92
2023/07/04 08:36:15;;;;;;;7.82;0.90;;;19.00;99.90;;;;;;4970905;28;20686;-92
2023/07/04 08:38:42;;;;;;;6.35;0.70;;;18.80;99.90;;;;;;4957963;28;21022;-92
2023/07/04 08:41:33;;;;;;;7.22;1.00;;;18.90;99.90;;;;;;4951537;28;20408;-95
2023/07/04 08:44:12;;;;;;;6.30;0.90;;;19.00;99.90;;;;;;4923989;28;20485;-91
2023/07/04 08:46:45;;;;;;;6.37;1.23;;;19.10;99.90;;;;;;4969947;28;20407;-92
2023/07/04 08:49:30;;;;;;;5.60;1.10;;;19.30;99.90;;;;;;4970173;28;20402;-92
2023/07/04 08:52:02;;;;;;;8.05;1.08;;;19.40;99.90;;;;;;4971111;28;20410;-90
2023/07/04 08:54:28;;;;;;;8.47;1.30;;;19.40;99.90;;;;;;4970824;28;20414;-92
2023/07/04 08:56:59;;;;;;;6.88;0.93;;;19.30;99.90;;;;;;4971003;28;20488;-91
2023/07/04 08:59:41;;;;;;;6.45;1.20;;;19.50;99.90;;;;;;4970485;28;20439;-91
2023/07/04 09:02:24;;;;;;;6.63;0.98;;;19.60;99.90;;;;;;4967171;28;20499;-90
2023/07/04 09:05:17;;;;;;;9.15;1.25;;;19.40;99.90;;;;;;4970227;28;20457;-89
2023/07/04 09:08:08;;;;;;;8.43;0.98;;;19.00;99.90;;;;;;4954156;28;20433;-91
2023/07/04 09:10:41;;;;;;;9.27;1.20;;;18.70;99.90;;;;;;4969991;28;20414;-90
2023/07/04 09:13:11;;;;;;;7.50;0.90;;;18.60;99.90;;;;;;4970556;28;20425;-91
2023/07/04 09:15:43;;;;;;;6.38;1.10;;;18.70;99.90;;;;;;4953977;28;20418;-92
2023/07/04 09:18:09;;;;;;;7.63;1.25;;;18.70;99.90;;;;;;4951858;28;20431;-90
2023/07/04 09:20:55;;;;;;;5.47;0.73;;;18.50;99.90;;;;;;4948766;28;20410;-92
2023/07/04 09:23:22;;;;;;;8.70;0.70;;;18.20;99.90;;;;;;4939581;28;20416;-91
2023/07/04 09:25:49;;;;;;;7.13;0.70;;;18.20;99.90;;;;;;4951218;28;20415;-93
2023/07/04 09:28:15;;;;;;;7.65;1.00;;;18.40;99.90;;;;;;4950287;28;20485;-91
2023/07/04 09:30:41;;;;;;;4.72;0.52;;;18.90;99.90;;;;;;4935442;28;20404;-91
2023/07/04 09:33:09;;;;;;;4.47;0.50;;;19.00;99.30;;;;;;4934483;28;20412;-88
2023/07/04 09:35:35;;;;;;;5.43;0.60;;;18.90;92.90;;;;;;4951159;28;20448;-88
2023/07/04 09:38:03;;;;;;;4.17;0.50;;;18.90;90.60;;;;;;4934321;28;20971;-91
2023/07/04 09:40:40;;;;;;;5.78;0.40;;;18.60;95.40;;;;;;4950639;28;20431;-91
2023/07/04 09:43:07;;;;;;;3.20;0.30;;;18.50;93.90;;;;;;4949960;28;20408;-91
2023/07/04 09:45:33;;;;;;;4.63;0.40;;;18.60;96.60;;;;;;4934079;28;20743;-87
2023/07/04 09:47:59;;;;;;;5.67;0.43;;;18.30;91.70;;;;;;4950863;28;20467;-89
2023/07/04 09:50:28;;;;;;;8.20;0.60;;;18.30;94.80;;;;;;4950570;28;20423;-89
2023/07/04 09:53:09;;;;;;;7.23;0.70;;;18.20;98.60;;;;;;4934601;28;20420;-90
2023/07/04 09:55:40;;;;;;;5.78;0.50;;;18.20;98.30;;;;;;4950583;28;20814;-90
2023/07/04 09:58:21;;;;;;;4.40;0.40;;;18.20;99.90;;;;;;4950003;28;20428;-88
2023/07/04 10:01:11;;;;;;;3.50;0.60;;;18.50;99.90;;;;;;4950531;28;20917;-90
2023/07/04 10:03:41;;;;;;;5.88;0.70;;;18.90;96.80;;;;;;4929766;29;20445;-89
2023/07/04 10:06:09;;;;;;;4.80;0.70;;;18.90;89.10;;;;;;4930102;29;20516;-91
2023/07/04 10:08:55;;;;;;;5.37;0.53;;;18.90;95.50;;;;;;4914848;29;20548;-88
2023/07/04 10:11:25;;;;;;;5.17;0.60;;;19.20;92.60;;;;;;4914390;28;20413;-90
2023/07/04 10:14:06;;;;;;;3.85;0.60;;;19.40;95.70;;;;;;4929734;29;20438;-89
2023/07/04 10:16:32;;;;;;;5.53;0.60;;;19.60;93.70;;;;;;4964021;28;20855;-91
2023/07/04 10:19:03;;;;;;;4.82;0.55;;;19.90;99.90;;;;;;4937178;28;20467;-88
2023/07/04 10:21:29;;;;;;;4.40;0.50;;;20.20;77.80;;;;;;4937544;28;20424;-93
2023/07/04 10:23:55;;;;;;;4.70;0.43;;;20.20;86.30;;;;;;4937546;28;21032;-91
2023/07/04 10:26:21;;;;;;;4.73;0.57;;;19.80;84.20;;;;;;4938299;28;20448;-89
2023/07/04 10:28:48;;;;;;;5.43;0.60;;;19.80;75.50;;;;;;4969667;28;20407;-91
2023/07/04 10:31:21;;;;;;;6.13;0.50;;;20.00;77.60;;;;;;4938106;28;20430;-91
2023/07/04 10:33:58;;;;;;;5.78;0.57;;;20.50;78.00;;;;;;4970183;28;20555;-93
2023/07/04 10:36:28;;;;;;;6.53;0.70;;;20.70;83.00;;;;;;4952993;28;20520;-90
2023/07/04 10:38:59;;;;;;;5.50;0.70;;;21.00;73.60;;;;;;4953245;28;20917;-91
2023/07/04 10:41:35;;;;;;;5.07;0.73;;;21.40;68.20;;;;;;4952709;28;20424;-91
2023/07/04 10:44:11;;;;;;;5.93;0.73;;;21.80;72.10;;;;;;4937103;28;20447;-91
2023/07/04 10:46:53;;;;;;;6.13;0.65;;;21.90;65.40;;;;;;4953194;28;20416;-91
2023/07/04 10:49:22;;;;;;;4.80;0.60;;;21.60;64.50;;;;;;4936590;28;20405;-93
2023/07/04 10:51:53;;;;;;;6.03;0.70;;;21.10;59.20;;;;;;4953021;28;20404;-93
2023/07/04 10:54:19;;;;;;;5.45;0.52;;;21.10;64.80;;;;;;4936235;28;20426;-91
2023/07/04 10:56:51;;;;;;;7.40;0.60;;;20.90;59.80;;;;;;4953021;28;20798;-89
2023/07/04 10:59:24;;;;;;;6.90;0.50;;;20.50;64.00;;;;;;4935796;28;20443;-92
2023/07/04 11:02:09;;;;;;;6.07;0.63;;;21.10;64.00;;;;;;4953385;28;20408;-93
2023/07/04 11:04:38;;;;;;;6.17;0.77;;;20.90;68.10;;;;;;4936489;28;20924;-90
2023/07/04 11:07:20;;;;;;;6.78;0.70;;;21.10;71.40;;;;;;4935499;28;20439;-92
2023/07/04 11:09:47;;;;;;;2.80;0.40;;;21.60;71.20;;;;;;4952975;28;20477;-88
2023/07/04 11:12:17;;;;;;;5.40;0.52;;;22.10;57.30;;;;;;4951342;28;20414;-91
2023/07/04 11:14:45;;;;;;;5.32;0.57;;;22.30;61.90;;;;;;4948866;28;20407;-89
2023/07/04 11:17:15;;;;;;;6.80;0.80;;;22.60;57.50;;;;;;4987579;28;20854;-90
2023/07/04 11:19:53;;;;;;;5.88;0.60;;;23.10;59.80;;;;;;4950662;28;20857;-90
2023/07/04 11:22:19;;;;;;;4.82;0.52;;;23.50;57.50;;;;;;4951697;28;20490;-91
2023/07/04 11:24:53;;;;;;;5.63;0.67;;;23.50;55.00;;;;;;4951116;28;20413;-90
2023/07/04 11:27:30;;;;;;;5.80;0.63;;;23.50;57.70;;;;;;4966953;28;20408;-89
2023/07/04 11:30:03;;;;;;;3.97;0.50;;;23.50;59.70;;;;;;4983576;28;20826;-89
2023/07/04 11:32:32;;;;;;;5.32;0.55;;;23.70;55.50;;;;;;4984471;28;20443;-90
2023/07/04 11:35:15;;;;;;;5.97;0.50;;;23.90;54.20;;;;;;4950751;28;20443;-91
2023/07/04 11:37:45;;;;;;;4.57;0.60;;;23.80;53.70;;;;;;4951447;28;20626;-90
2023/07/04 11:40:40;;;;;;;4.87;0.63;;;23.80;56.50;;;;;;4951778;28;20878;-91
2023/07/04 11:43:21;;;;;;;4.70;0.50;;;23.80;54.50;;;;;;4967096;28;20480;-90
2023/07/04 11:45:48;;;;;;;5.13;0.60;;;23.70;54.70;;;;;;4967309;28;20430;-91
2023/07/04 11:48:17;;;;;;;3.88;0.55;;;23.40;55.10;;;;;;4951360;28;20832;-90
2023/07/04 11:50:45;;;;;;;5.40;0.47;;;23.50;55.10;;;;;;4950967;28;20404;-88
2023/07/04 11:53:45;;;;;;;3.65;0.60;;;22.90;57.80;;;;;;4967928;28;20417;-90
2023/07/04 11:56:24;;;;;;;5.85;0.63;;;22.60;55.80;;;;;;4947293;28;20909;-89
2023/07/04 11:59:11;;;;;;;3.60;0.40;;;22.70;56.30;;;;;;4950838;28;20503;-88
2023/07/04 12:01:52;;;;;;;4.65;0.40;;;22.40;51.80;;;;;;4951801;28;20798;-90
2023/07/04 12:04:44;;;;;;;5.53;0.43;;;22.20;55.50;;;;;;4950558;28;20416;-89
2023/07/04 12:07:39;;;;;;;3.30;0.40;;;22.30;54.70;;;;;;4950965;28;20513;-89
2023/07/04 12:10:18;;;;;;;6.43;0.50;;;22.30;52.30;;;;;;4951075;28;20420;-91
2023/07/04 12:12:45;;;;;;;4.40;0.50;;;22.50;51.80;;;;;;4954204;28;20422;-91
2023/07/04 12:15:28;;;;;;;3.50;0.30;;;22.80;52.00;;;;;;4954582;28;20424;-90
2023/07/04 12:17:58;;;;;;;3.65;0.50;;;22.90;53.20;;;;;;4969909;28;20958;-86
2023/07/04 12:20:27;;;;;;;3.88;0.40;;;23.40;53.90;;;;;;4970176;28;20997;-91
2023/07/04 12:22:57;;;;;;;5.90;0.50;;;23.70;52.90;;;;;;4954759;28;20970;-92
2023/07/04 12:25:44;;;;;;;4.05;0.40;;;24.00;51.60;;;;;;4954665;28;20486;-90
2023/07/04 12:28:12;;;;;;;5.13;0.50;;;24.00;48.70;;;;;;4955072;28;20423;-90
2023/07/04 12:30:39;;;;;;;6.28;1.00;;;23.40;49.50;;;;;;4954302;28;20410;-90
2023/07/04 12:33:06;;;;;;;4.10;0.60;;;23.20;52.60;;;;;;4954640;28;20828;-90
2023/07/04 12:35:35;;;;;;;5.22;0.43;;;23.40;48.70;;;;;;4954213;28;20399;-87
2023/07/04 12:38:02;;;;;;;5.32;0.50;;;23.10;50.80;;;;;;4970159;28;20450;-92
2023/07/04 12:40:30;;;;;;;4.88;0.50;;;22.80;51.40;;;;;;4971227;28;20410;-89
2023/07/04 12:43:01;;;;;;;3.90;0.30;;;22.60;51.60;;;;;;4969444;28;20402;-92
2023/07/04 12:45:29;;;;;;;4.80;0.60;;;22.70;53.60;;;;;;4970342;28;20431;-89
2023/07/04 12:47:58;;;;;;;4.88;0.90;;;22.40;55.50;;;;;;4969472;28;20421;-93
2023/07/04 12:50:24;;;;;;;4.85;0.68;;;22.60;52.70;;;;;;4953786;28;20489;-91
2023/07/04 12:52:51;;;;;;;5.55;0.77;;;22.50;51.90;;;;;;4953932;28;20509;-90
2023/07/04 12:55:30;;;;;;;4.57;0.60;;;22.20;52.20;;;;;;4969529;28;20410;-91
2023/07/04 12:57:57;;;;;;;4.25;0.70;;;22.00;54.20;;;;;;4954169;28;20426;-91
2023/07/04 13:00:36;;;;;;;4.28;0.50;;;22.20;53.80;;;;;;4953087;28;20445;-87
2023/07/04 13:03:14;;;;;;;5.68;0.73;;;22.30;55.30;;;;;;4954073;28;20820;-88
2023/07/04 13:05:45;;;;;;;5.35;1.00;;;22.60;53.00;;;;;;4969527;28;20415;-89